Terminal Aerodrome Forecast
Issued by NWS Charleston, WV

Current Version | Previous Version | Text Only | Print | Product List | Glossary Off
Versions: 1 2 3 4 5 6 7 8 9 10 11 12 13 14 15 16 17 18 19 20 21 22

649
FTUS41 KRLX 040539
TAFHTS
TAF
KHTS 040539Z 0406/0506 27008KT P6SM SCT040
     FM040800 28005KT P6SM BKN025
     FM041100 28004KT P6SM OVC015
     FM041500 28004KT P6SM BKN025
     FM042300 30005KT P6SM SCT030=

USA.gov is the U.S. government's official web portal to all federal, state and local government web resources and services.